createdAt,value
2017-11-25T00:00:01.194Z,30.30
2017-11-25T00:05:06.501Z,30.60
2017-11-25T00:10:09.426Z,30.50
2017-11-25T00:15:12.064Z,30.50
2017-11-25T00:20:14.686Z,30.60
2017-11-25T00:25:17.313Z,30.70
2017-11-25T00:30:19.893Z,30.70
2017-11-25T00:35:22.525Z,30.40
2017-11-25T00:40:26.057Z,29.60
2017-11-25T00:45:28.737Z,29.50
2017-11-25T00:50:32.420Z,28.90
2017-11-25T00:55:34.991Z,28.90
2017-11-25T01:00:38.215Z,28.60
2017-11-25T01:05:40.792Z,28.30
2017-11-25T01:10:43.496Z,28.00
2017-11-25T01:15:46.083Z,27.70
2017-11-25T01:20:49.197Z,27.50
2017-11-25T01:25:51.773Z,27.20
2017-11-25T01:30:55.105Z,26.70
2017-11-25T01:35:57.717Z,26.70
2017-11-25T01:41:00.299Z,26.50
2017-11-25T01:46:02.883Z,26.30
2017-11-25T01:51:05.453Z,26.10
2017-11-25T01:56:08.849Z,25.70
2017-11-25T02:01:11.480Z,25.70
2017-11-25T02:06:14.079Z,25.50
2017-11-25T02:11:16.692Z,25.30
2017-11-25T02:16:19.289Z,25.20
2017-11-25T02:21:21.916Z,25.00
2017-11-25T02:26:24.524Z,24.90
2017-11-25T02:31:27.138Z,24.80
2017-11-25T02:36:30.482Z,24.60
2017-11-25T02:41:33.097Z,24.50
2017-11-25T02:46:35.763Z,24.50
2017-11-25T02:51:38.352Z,24.30
2017-11-25T02:56:40.924Z,24.20
2017-11-25T03:01:43.607Z,24.00
2017-11-25T03:06:46.266Z,24.00
2017-11-25T03:11:48.826Z,23.80
2017-11-25T03:16:52.434Z,23.70
2017-11-25T03:21:55.020Z,23.60
2017-11-25T03:26:57.617Z,23.50
2017-11-25T03:32:00.211Z,23.40
2017-11-25T03:37:02.841Z,23.30
2017-11-25T03:42:05.423Z,23.30
2017-11-25T03:47:08.736Z,23.20
2017-11-25T03:52:12.072Z,23.00
2017-11-25T03:57:14.681Z,23.00
2017-11-25T04:02:17.282Z,22.90
2017-11-25T04:07:19.885Z,22.90
2017-11-25T04:12:22.505Z,22.80
2017-11-25T04:17:25.684Z,22.80
2017-11-25T04:22:28.321Z,22.60
2017-11-25T04:27:31.017Z,22.60
2017-11-25T04:32:34.442Z,22.50
2017-11-25T04:37:37.828Z,22.50
2017-11-25T04:42:40.436Z,22.50
2017-11-25T04:47:43.833Z,22.30
2017-11-25T04:52:46.421Z,22.30
2017-11-25T04:57:48.985Z,22.20
2017-11-25T05:02:51.684Z,22.20
2017-11-25T05:07:54.979Z,22.10
2017-11-25T05:12:57.564Z,22.00
2017-11-25T05:18:00.158Z,21.90
2017-11-25T05:23:02.760Z,21.80
2017-11-25T05:28:06.139Z,21.70
2017-11-25T05:33:08.784Z,21.70
2017-11-25T05:38:11.369Z,21.70
2017-11-25T05:43:13.994Z,21.60
2017-11-25T05:48:17.454Z,21.50
2017-11-25T05:53:20.794Z,21.40
2017-11-25T05:58:23.488Z,21.40
2017-11-25T06:03:26.109Z,21.40
2017-11-25T06:08:28.914Z,21.30
2017-11-25T06:13:31.489Z,21.30
2017-11-25T06:18:34.063Z,21.30
2017-11-25T06:23:37.685Z,21.10
2017-11-25T06:28:40.438Z,21.10
2017-11-25T06:33:43.403Z,21.10
2017-11-25T06:38:46.295Z,21.00
2017-11-25T06:43:50.324Z,21.00
2017-11-25T06:48:55.095Z,21.00
2017-11-25T06:53:58.586Z,20.90
2017-11-25T06:59:02.608Z,20.90
2017-11-25T07:04:05.631Z,20.90
2017-11-25T07:09:08.844Z,20.90
2017-11-25T07:14:11.509Z,20.80
2017-11-25T07:19:14.920Z,20.80
2017-11-25T07:24:17.592Z,20.70
2017-11-25T07:29:20.221Z,20.70
2017-11-25T07:34:22.801Z,20.70
2017-11-25T07:39:25.426Z,20.60
2017-11-25T07:44:28.042Z,20.60
2017-11-25T07:49:30.677Z,20.60
2017-11-25T07:54:33.276Z,20.60
2017-11-25T07:59:35.864Z,20.50
2017-11-25T08:04:38.533Z,20.50
2017-11-25T08:09:41.143Z,20.40
2017-11-25T08:14:43.770Z,20.40
2017-11-25T08:19:46.389Z,20.40
2017-11-25T08:24:49.829Z,20.40
2017-11-25T08:29:53.254Z,20.40
2017-11-25T08:34:55.820Z,20.30
2017-11-25T08:39:58.478Z,20.30
2017-11-25T08:45:01.064Z,20.30
2017-11-25T08:50:03.797Z,20.20
2017-11-25T08:55:06.989Z,20.20
2017-11-25T09:00:09.660Z,20.20
2017-11-25T09:05:12.261Z,20.20
2017-11-25T09:10:14.836Z,20.10
2017-11-25T09:15:17.467Z,20.10
2017-11-25T09:20:20.169Z,20.10
2017-11-25T09:25:23.665Z,20.00
2017-11-25T09:30:26.908Z,20.00
2017-11-25T09:35:30.368Z,20.00
2017-11-25T09:40:33.000Z,20.00
2017-11-25T09:45:35.657Z,19.90
2017-11-25T09:50:38.289Z,19.90
2017-11-25T09:55:41.034Z,19.80
2017-11-25T10:00:43.689Z,19.80
2017-11-25T10:05:47.063Z,19.80
2017-11-25T10:10:49.900Z,19.70
2017-11-25T10:15:53.412Z,19.80
2017-11-25T10:20:56.785Z,19.80
2017-11-25T10:25:59.439Z,19.70
2017-11-25T10:31:02.793Z,19.70
2017-11-25T10:36:05.430Z,19.70
2017-11-25T10:41:08.024Z,19.70
2017-11-25T10:46:10.628Z,19.70
2017-11-25T10:51:13.202Z,19.70
2017-11-25T10:56:15.824Z,19.70
2017-11-25T11:01:18.461Z,19.70
2017-11-25T11:06:21.097Z,19.70
2017-11-25T11:11:23.727Z,19.60
2017-11-25T11:16:27.089Z,19.60
2017-11-25T11:21:29.705Z,19.60
2017-11-25T11:26:32.301Z,19.60
2017-11-25T11:31:34.909Z,19.70
2017-11-25T11:36:37.699Z,19.60
2017-11-25T11:41:40.351Z,19.60
2017-11-25T11:46:42.989Z,19.60
2017-11-25T11:51:45.672Z,19.60
2017-11-25T11:56:49.096Z,19.70
2017-11-25T12:01:51.785Z,19.70
2017-11-25T12:06:54.482Z,19.70
2017-11-25T12:11:57.383Z,19.70
2017-11-25T12:17:00.172Z,19.80
2017-11-25T12:22:02.861Z,19.70
2017-11-25T12:27:05.727Z,19.80
2017-11-25T12:32:08.436Z,19.70
2017-11-25T12:37:11.078Z,19.80
2017-11-25T12:42:13.666Z,19.80
2017-11-25T12:47:16.279Z,19.80
2017-11-25T12:52:18.930Z,19.70
2017-11-25T12:57:21.529Z,19.70
2017-11-25T13:02:24.140Z,19.70
2017-11-25T13:07:26.740Z,19.80
2017-11-25T13:12:29.372Z,19.80
2017-11-25T13:17:32.103Z,19.80
2017-11-25T13:22:34.758Z,19.70
2017-11-25T13:27:37.390Z,19.70
2017-11-25T13:32:41.623Z,19.70
2017-11-25T13:37:44.933Z,19.70
2017-11-25T13:42:49.080Z,19.70
2017-11-25T13:47:52.759Z,19.70
2017-11-25T13:52:58.998Z,19.70
2017-11-25T13:58:02.284Z,19.70
2017-11-25T14:03:05.087Z,19.70
2017-11-25T14:08:07.689Z,19.70
2017-11-25T14:13:11.338Z,19.70
2017-11-25T14:18:13.948Z,19.70
2017-11-25T14:23:16.567Z,19.70
2017-11-25T14:28:19.189Z,19.70
2017-11-25T14:33:21.832Z,19.70
2017-11-25T14:38:24.465Z,19.70
2017-11-25T14:43:28.841Z,19.70
2017-11-25T14:48:31.508Z,19.70
2017-11-25T14:53:34.250Z,19.70
2017-11-25T14:58:46.682Z,19.70
2017-11-25T15:03:50.377Z,19.70
2017-11-25T15:08:53.023Z,19.70
2017-11-25T15:13:56.507Z,19.70
2017-11-25T15:18:59.148Z,19.70
2017-11-25T15:24:02.611Z,19.70
2017-11-25T15:29:05.210Z,19.70
2017-11-25T15:34:07.816Z,19.70
2017-11-25T15:39:10.401Z,19.70
2017-11-25T15:44:13.785Z,19.70
2017-11-25T15:49:16.376Z,19.60
2017-11-25T15:54:19.076Z,19.70
2017-11-25T15:59:21.707Z,19.70
2017-11-25T16:04:24.329Z,19.70
2017-11-25T16:09:27.748Z,19.70
2017-11-25T16:14:31.762Z,19.70
2017-11-25T16:19:34.340Z,19.60
2017-11-25T16:24:36.989Z,19.70
2017-11-25T16:29:39.629Z,19.70
2017-11-25T16:34:42.283Z,19.70
2017-11-25T16:39:45.678Z,19.70
2017-11-25T16:44:49.124Z,19.70
2017-11-25T16:49:51.754Z,19.70
2017-11-25T16:54:54.398Z,19.70
2017-11-25T16:59:57.019Z,19.70
2017-11-25T17:05:00.405Z,19.60
2017-11-25T17:10:02.996Z,19.60
2017-11-25T17:15:05.692Z,19.60
2017-11-25T17:20:09.125Z,19.50
2017-11-25T17:25:12.486Z,19.50
2017-11-25T17:30:15.786Z,19.50
2017-11-25T17:35:19.108Z,19.50
2017-11-25T17:40:21.742Z,19.50
2017-11-25T17:45:25.108Z,19.50
2017-11-25T17:50:27.691Z,19.40
2017-11-25T17:55:30.256Z,19.50
2017-11-25T18:00:32.851Z,19.50
2017-11-25T18:05:35.438Z,19.40
2017-11-25T18:10:38.010Z,19.40
2017-11-25T18:15:40.585Z,19.40
2017-11-25T18:20:43.159Z,19.40
2017-11-25T18:25:45.794Z,19.40
2017-11-25T18:30:48.416Z,19.40
2017-11-25T18:35:51.045Z,19.30
2017-11-25T18:40:53.644Z,19.30
2017-11-25T18:45:56.260Z,19.30
2017-11-25T18:50:59.196Z,19.30
2017-11-25T18:56:01.798Z,19.30
2017-11-25T19:01:05.154Z,19.30
2017-11-25T19:06:07.733Z,19.30
2017-11-25T19:11:10.337Z,19.30
2017-11-25T19:16:12.971Z,19.30
2017-11-25T19:21:15.627Z,19.30
2017-11-25T19:26:18.236Z,19.30
2017-11-25T19:31:20.837Z,19.30
2017-11-25T19:36:23.499Z,19.30
2017-11-25T19:41:26.294Z,19.30
2017-11-25T19:46:28.945Z,19.30
2017-11-25T19:51:31.589Z,19.30
2017-11-25T19:56:34.192Z,19.30
2017-11-25T20:01:36.779Z,19.30
2017-11-25T20:06:39.372Z,19.30
2017-11-25T20:11:42.604Z,19.30
2017-11-25T20:16:45.240Z,19.30
2017-11-25T20:21:47.836Z,19.00
2017-11-25T20:26:50.487Z,19.00
2017-11-25T20:31:53.273Z,19.00
2017-11-25T20:36:55.923Z,19.00
2017-11-25T20:41:58.505Z,19.00
2017-11-25T20:47:01.688Z,19.00
2017-11-25T20:52:04.866Z,19.00
2017-11-25T20:57:09.439Z,19.10
2017-11-25T21:02:12.103Z,19.10
2017-11-25T21:07:15.587Z,19.10
2017-11-25T21:12:18.217Z,19.10
2017-11-25T21:17:20.913Z,19.20
2017-11-25T21:22:23.652Z,19.20
2017-11-25T21:27:26.412Z,19.20
2017-11-25T21:32:29.843Z,19.20
2017-11-25T21:37:32.725Z,19.20
2017-11-25T21:42:35.884Z,19.20
2017-11-25T21:47:39.080Z,19.30
2017-11-25T21:52:41.853Z,19.30
2017-11-25T21:57:44.986Z,19.30
2017-11-25T22:02:47.589Z,19.40
2017-11-25T22:07:50.168Z,19.30
2017-11-25T22:12:52.840Z,19.30
2017-11-25T22:17:55.642Z,19.30
2017-11-25T22:22:59.125Z,19.30
2017-11-25T22:28:01.927Z,19.30
2017-11-25T22:33:05.177Z,19.30
2017-11-25T22:38:07.799Z,19.40
2017-11-25T22:43:10.388Z,19.30
2017-11-25T22:48:13.256Z,19.40
2017-11-25T22:53:16.043Z,19.40
2017-11-25T22:58:19.665Z,19.40
2017-11-25T23:03:22.585Z,19.40
2017-11-25T23:08:25.959Z,19.40
2017-11-25T23:13:28.652Z,19.40
2017-11-25T23:18:31.440Z,19.30
2017-11-25T23:23:34.135Z,19.30
2017-11-25T23:28:36.802Z,19.40
2017-11-25T23:33:39.425Z,19.40
2017-11-25T23:38:42.041Z,19.30
2017-11-25T23:43:45.434Z,19.20
2017-11-25T23:48:48.059Z,19.20
2017-11-25T23:53:50.683Z,19.10
2017-11-25T23:58:53.288Z,19.00
